sensor_id;sensor_type;location;lat;lon;timestamp;P1;durP1;ratioP1;P2;durP2;ratioP2
45792;SDS011;31495;42.740;22.908;2023-02-28T00:00:42;15.85;;;5.93;;
45792;SDS011;31495;42.740;22.908;2023-02-28T00:01:42;13.90;;;5.82;;
45792;SDS011;31495;42.740;22.908;2023-02-28T00:02:42;15.90;;;7.05;;
45792;SDS011;31495;42.740;22.908;2023-02-28T00:03:42;15.70;;;6.80;;
45792;SDS011;31495;42.740;22.908;2023-02-28T00:04:42;11.90;;;5.72;;
45792;SDS011;31495;42.740;22.908;2023-02-28T00:05:41;16.17;;;7.32;;
45792;SDS011;31495;42.740;22.908;2023-02-28T00:06:41;17.25;;;6.13;;
45792;SDS011;31495;42.740;22.908;2023-02-28T00:07:40;16.92;;;6.95;;
45792;SDS011;31495;42.740;22.908;2023-02-28T00:08:41;20.40;;;7.95;;
45792;SDS011;31495;42.740;22.908;2023-02-28T00:09:41;20.42;;;8.13;;
45792;SDS011;31495;42.740;22.908;2023-02-28T00:10:40;17.08;;;7.13;;
45792;SDS011;31495;42.740;22.908;2023-02-28T00:11:39;14.07;;;7.28;;
45792;SDS011;31495;42.740;22.908;2023-02-28T00:12:39;24.95;;;8.52;;
45792;SDS011;31495;42.740;22.908;2023-02-28T00:13:40;20.90;;;7.07;;
45792;SDS011;31495;42.740;22.908;2023-02-28T00:14:41;20.67;;;8.48;;
45792;SDS011;31495;42.740;22.908;2023-02-28T00:15:41;24.65;;;8.43;;
45792;SDS011;31495;42.740;22.908;2023-02-28T00:16:40;22.42;;;8.25;;
45792;SDS011;31495;42.740;22.908;2023-02-28T00:17:39;28.02;;;8.45;;
45792;SDS011;31495;42.740;22.908;2023-02-28T00:18:39;18.80;;;7.90;;
45792;SDS011;31495;42.740;22.908;2023-02-28T00:19:38;27.42;;;9.43;;
45792;SDS011;31495;42.740;22.908;2023-02-28T00:20:37;19.25;;;8.93;;
45792;SDS011;31495;42.740;22.908;2023-02-28T00:21:37;23.33;;;10.70;;
45792;SDS011;31495;42.740;22.908;2023-02-28T00:22:41;27.98;;;12.15;;
45792;SDS011;31495;42.740;22.908;2023-02-28T00:23:43;24.58;;;11.77;;
45792;SDS011;31495;42.740;22.908;2023-02-28T00:24:43;16.60;;;8.43;;
45792;SDS011;31495;42.740;22.908;2023-02-28T00:25:43;14.20;;;7.60;;
45792;SDS011;31495;42.740;22.908;2023-02-28T00:26:43;12.82;;;6.38;;
45792;SDS011;31495;42.740;22.908;2023-02-28T00:27:42;10.43;;;5.63;;
45792;SDS011;31495;42.740;22.908;2023-02-28T00:28:42;9.63;;;4.53;;
45792;SDS011;31495;42.740;22.908;2023-02-28T00:29:41;12.20;;;5.80;;
45792;SDS011;31495;42.740;22.908;2023-02-28T00:30:41;10.48;;;5.20;;
45792;SDS011;31495;42.740;22.908;2023-02-28T00:31:40;11.90;;;4.85;;
45792;SDS011;31495;42.740;22.908;2023-02-28T00:32:39;14.60;;;6.20;;
45792;SDS011;31495;42.740;22.908;2023-02-28T00:33:39;18.95;;;6.53;;
45792;SDS011;31495;42.740;22.908;2023-02-28T00:34:39;12.50;;;5.78;;
45792;SDS011;31495;42.740;22.908;2023-02-28T00:35:38;9.82;;;4.78;;
45792;SDS011;31495;42.740;22.908;2023-02-28T00:36:38;8.63;;;4.07;;
45792;SDS011;31495;42.740;22.908;2023-02-28T00:37:40;10.70;;;4.25;;
45792;SDS011;31495;42.740;22.908;2023-02-28T00:38:40;10.25;;;3.60;;
45792;SDS011;31495;42.740;22.908;2023-02-28T00:39:40;9.45;;;3.83;;
45792;SDS011;31495;42.740;22.908;2023-02-28T00:40:40;17.73;;;5.20;;
45792;SDS011;31495;42.740;22.908;2023-02-28T00:41:39;14.75;;;4.40;;
45792;SDS011;31495;42.740;22.908;2023-02-28T00:42:38;13.60;;;3.92;;
45792;SDS011;31495;42.740;22.908;2023-02-28T00:43:38;9.57;;;3.88;;
45792;SDS011;31495;42.740;22.908;2023-02-28T00:44:38;7.78;;;3.63;;
45792;SDS011;31495;42.740;22.908;2023-02-28T00:45:38;8.90;;;3.45;;
45792;SDS011;31495;42.740;22.908;2023-02-28T00:46:37;12.15;;;4.53;;
45792;SDS011;31495;42.740;22.908;2023-02-28T00:47:36;10.80;;;4.25;;
45792;SDS011;31495;42.740;22.908;2023-02-28T00:48:36;9.68;;;4.22;;
45792;SDS011;31495;42.740;22.908;2023-02-28T00:49:36;11.48;;;3.83;;
45792;SDS011;31495;42.740;22.908;2023-02-28T00:50:35;11.38;;;4.65;;
45792;SDS011;31495;42.740;22.908;2023-02-28T00:51:35;13.13;;;4.70;;
45792;SDS011;31495;42.740;22.908;2023-02-28T00:52:34;13.40;;;3.60;;
45792;SDS011;31495;42.740;22.908;2023-02-28T00:53:34;11.45;;;3.25;;
45792;SDS011;31495;42.740;22.908;2023-02-28T00:54:33;12.15;;;4.78;;
45792;SDS011;31495;42.740;22.908;2023-02-28T00:55:33;10.30;;;3.83;;
45792;SDS011;31495;42.740;22.908;2023-02-28T00:56:32;13.93;;;5.65;;
45792;SDS011;31495;42.740;22.908;2023-02-28T00:57:31;14.23;;;5.28;;
45792;SDS011;31495;42.740;22.908;2023-02-28T00:58:31;14.20;;;4.63;;
45792;SDS011;31495;42.740;22.908;2023-02-28T00:59:30;9.40;;;3.55;;
45792;SDS011;31495;42.740;22.908;2023-02-28T01:00:30;11.43;;;4.20;;
45792;SDS011;31495;42.740;22.908;2023-02-28T01:01:29;11.82;;;4.45;;
45792;SDS011;31495;42.740;22.908;2023-02-28T01:02:29;10.57;;;4.03;;
45792;SDS011;31495;42.740;22.908;2023-02-28T01:03:28;11.73;;;4.55;;
45792;SDS011;31495;42.740;22.908;2023-02-28T01:04:27;11.68;;;4.80;;
45792;SDS011;31495;42.740;22.908;2023-02-28T01:05:27;13.68;;;4.28;;
45792;SDS011;31495;42.740;22.908;2023-02-28T01:06:26;12.35;;;4.85;;
45792;SDS011;31495;42.740;22.908;2023-02-28T01:07:26;8.85;;;3.97;;
45792;SDS011;31495;42.740;22.908;2023-02-28T01:08:25;12.95;;;4.75;;
45792;SDS011;31495;42.740;22.908;2023-02-28T01:09:26;21.02;;;7.55;;
45792;SDS011;31495;42.740;22.908;2023-02-28T01:10:25;17.75;;;5.70;;
45792;SDS011;31495;42.740;22.908;2023-02-28T01:11:30;23.02;;;5.85;;
45792;SDS011;31495;42.740;22.908;2023-02-28T01:12:30;13.90;;;5.13;;
45792;SDS011;31495;42.740;22.908;2023-02-28T01:13:29;11.48;;;5.22;;
45792;SDS011;31495;42.740;22.908;2023-02-28T01:14:29;11.82;;;4.45;;
45792;SDS011;31495;42.740;22.908;2023-02-28T01:15:28;15.07;;;4.78;;
45792;SDS011;31495;42.740;22.908;2023-02-28T01:16:28;14.40;;;4.13;;
45792;SDS011;31495;42.740;22.908;2023-02-28T01:17:27;14.02;;;4.07;;
45792;SDS011;31495;42.740;22.908;2023-02-28T01:18:26;9.88;;;4.32;;
45792;SDS011;31495;42.740;22.908;2023-02-28T01:19:27;11.80;;;3.58;;
45792;SDS011;31495;42.740;22.908;2023-02-28T01:20:27;10.95;;;4.40;;
45792;SDS011;31495;42.740;22.908;2023-02-28T01:21:27;12.38;;;5.05;;
45792;SDS011;31495;42.740;22.908;2023-02-28T01:22:26;14.68;;;5.93;;
45792;SDS011;31495;42.740;22.908;2023-02-28T01:23:26;15.23;;;5.35;;
45792;SDS011;31495;42.740;22.908;2023-02-28T01:24:26;13.80;;;5.25;;
45792;SDS011;31495;42.740;22.908;2023-02-28T01:25:25;12.57;;;5.32;;
45792;SDS011;31495;42.740;22.908;2023-02-28T01:26:25;14.50;;;5.13;;
45792;SDS011;31495;42.740;22.908;2023-02-28T01:27:24;11.13;;;4.95;;
45792;SDS011;31495;42.740;22.908;2023-02-28T01:28:25;14.55;;;6.50;;
45792;SDS011;31495;42.740;22.908;2023-02-28T01:29:24;12.27;;;6.43;;
45792;SDS011;31495;42.740;22.908;2023-02-28T01:30:24;14.40;;;5.60;;
45792;SDS011;31495;42.740;22.908;2023-02-28T01:31:23;12.68;;;5.70;;
45792;SDS011;31495;42.740;22.908;2023-02-28T01:32:23;16.17;;;5.55;;
45792;SDS011;31495;42.740;22.908;2023-02-28T01:33:22;13.68;;;5.50;;
45792;SDS011;31495;42.740;22.908;2023-02-28T01:34:22;12.85;;;5.80;;
45792;SDS011;31495;42.740;22.908;2023-02-28T01:35:21;13.13;;;5.55;;
45792;SDS011;31495;42.740;22.908;2023-02-28T01:36:22;16.75;;;4.80;;
45792;SDS011;31495;42.740;22.908;2023-02-28T01:37:23;12.43;;;5.03;;
45792;SDS011;31495;42.740;22.908;2023-02-28T01:38:22;12.27;;;4.75;;
45792;SDS011;31495;42.740;22.908;2023-02-28T01:39:22;11.73;;;3.95;;
45792;SDS011;31495;42.740;22.908;2023-02-28T01:40:22;8.82;;;3.40;;
45792;SDS011;31495;42.740;22.908;2023-02-28T01:41:28;7.72;;;3.45;;
45792;SDS011;31495;42.740;22.908;2023-02-28T01:42:30;12.20;;;4.38;;
45792;SDS011;31495;42.740;22.908;2023-02-28T01:43:30;15.35;;;6.15;;
45792;SDS011;31495;42.740;22.908;2023-02-28T01:45:16;19.88;;;5.93;;
45792;SDS011;31495;42.740;22.908;2023-02-28T01:46:20;10.63;;;4.18;;
45792;SDS011;31495;42.740;22.908;2023-02-28T01:47:19;7.50;;;3.83;;
45792;SDS011;31495;42.740;22.908;2023-02-28T01:48:21;7.72;;;3.05;;
45792;SDS011;31495;42.740;22.908;2023-02-28T01:49:29;10.88;;;4.63;;
45792;SDS011;31495;42.740;22.908;2023-02-28T01:50:29;10.38;;;4.13;;
45792;SDS011;31495;42.740;22.908;2023-02-28T01:51:40;9.18;;;3.40;;
45792;SDS011;31495;42.740;22.908;2023-02-28T01:52:45;14.60;;;4.75;;
45792;SDS011;31495;42.740;22.908;2023-02-28T01:53:47;10.88;;;3.80;;
45792;SDS011;31495;42.740;22.908;2023-02-28T01:54:52;14.57;;;3.40;;
45792;SDS011;31495;42.740;22.908;2023-02-28T01:55:54;9.25;;;3.13;;
45792;SDS011;31495;42.740;22.908;2023-02-28T01:56:54;8.68;;;3.58;;
45792;SDS011;31495;42.740;22.908;2023-02-28T01:57:58;6.95;;;3.45;;
45792;SDS011;31495;42.740;22.908;2023-02-28T01:59:01;7.00;;;3.67;;
45792;SDS011;31495;42.740;22.908;2023-02-28T02:00:03;6.55;;;3.10;;
45792;SDS011;31495;42.740;22.908;2023-02-28T02:01:07;5.60;;;2.33;;
45792;SDS011;31495;42.740;22.908;2023-02-28T02:02:06;6.43;;;3.03;;
45792;SDS011;31495;42.740;22.908;2023-02-28T02:03:08;6.25;;;2.67;;
45792;SDS011;31495;42.740;22.908;2023-02-28T02:04:10;7.72;;;2.15;;
45792;SDS011;31495;42.740;22.908;2023-02-28T02:05:20;4.70;;;2.58;;
45792;SDS011;31495;42.740;22.908;2023-02-28T02:06:24;7.20;;;2.70;;
45792;SDS011;31495;42.740;22.908;2023-02-28T02:07:27;8.02;;;2.97;;
45792;SDS011;31495;42.740;22.908;2023-02-28T02:08:32;5.43;;;2.63;;
45792;SDS011;31495;42.740;22.908;2023-02-28T02:09:31;7.97;;;3.38;;
45792;SDS011;31495;42.740;22.908;2023-02-28T02:11:52;9.07;;;4.05;;
45792;SDS011;31495;42.740;22.908;2023-02-28T02:14:54;7.43;;;3.90;;
45792;SDS011;31495;42.740;22.908;2023-02-28T02:17:48;11.52;;;4.60;;
45792;SDS011;31495;42.740;22.908;2023-02-28T02:27:57;9.45;;;5.13;;
45792;SDS011;31495;42.740;22.908;2023-02-28T02:37:32;13.15;;;4.93;;
45792;SDS011;31495;42.740;22.908;2023-02-28T02:38:41;11.68;;;5.00;;
45792;SDS011;31495;42.740;22.908;2023-02-28T02:40:00;10.93;;;4.03;;
45792;SDS011;31495;42.740;22.908;2023-02-28T02:42:21;10.88;;;4.55;;
45792;SDS011;31495;42.740;22.908;2023-02-28T02:43:29;10.98;;;4.43;;
45792;SDS011;31495;42.740;22.908;2023-02-28T02:46:00;10.10;;;5.07;;
45792;SDS011;31495;42.740;22.908;2023-02-28T02:47:10;7.60;;;4.28;;
45792;SDS011;31495;42.740;22.908;2023-02-28T02:48:15;9.63;;;4.93;;
45792;SDS011;31495;42.740;22.908;2023-02-28T02:49:28;8.90;;;4.47;;
45792;SDS011;31495;42.740;22.908;2023-02-28T02:50:38;8.35;;;4.57;;
45792;SDS011;31495;42.740;22.908;2023-02-28T02:51:42;9.13;;;4.65;;
45792;SDS011;31495;42.740;22.908;2023-02-28T02:52:45;12.40;;;4.88;;
45792;SDS011;31495;42.740;22.908;2023-02-28T02:54:07;10.95;;;4.90;;
45792;SDS011;31495;42.740;22.908;2023-02-28T02:55:14;7.97;;;4.07;;
45792;SDS011;31495;42.740;22.908;2023-02-28T02:56:17;8.52;;;4.22;;
45792;SDS011;31495;42.740;22.908;2023-02-28T02:57:25;6.25;;;3.63;;
45792;SDS011;31495;42.740;22.908;2023-02-28T02:58:32;9.07;;;4.85;;
45792;SDS011;31495;42.740;22.908;2023-02-28T02:59:41;14.98;;;8.10;;
45792;SDS011;31495;42.740;22.908;2023-02-28T03:00:42;14.75;;;6.57;;
45792;SDS011;31495;42.740;22.908;2023-02-28T03:01:48;12.90;;;5.75;;
45792;SDS011;31495;42.740;22.908;2023-02-28T03:02:52;9.88;;;4.40;;
45792;SDS011;31495;42.740;22.908;2023-02-28T03:03:58;6.85;;;3.72;;
45792;SDS011;31495;42.740;22.908;2023-02-28T03:05:06;7.45;;;3.38;;
45792;SDS011;31495;42.740;22.908;2023-02-28T03:06:14;6.35;;;3.90;;
45792;SDS011;31495;42.740;22.908;2023-02-28T03:07:14;9.30;;;4.07;;
45792;SDS011;31495;42.740;22.908;2023-02-28T03:08:13;8.13;;;4.47;;
45792;SDS011;31495;42.740;22.908;2023-02-28T03:09:14;9.18;;;3.70;;
45792;SDS011;31495;42.740;22.908;2023-02-28T03:11:48;10.65;;;4.18;;
45792;SDS011;31495;42.740;22.908;2023-02-28T03:12:52;8.35;;;3.30;;
45792;SDS011;31495;42.740;22.908;2023-02-28T03:18:33;6.68;;;3.40;;
45792;SDS011;31495;42.740;22.908;2023-02-28T03:19:54;8.43;;;4.05;;
45792;SDS011;31495;42.740;22.908;2023-02-28T03:21:06;8.52;;;3.45;;
45792;SDS011;31495;42.740;22.908;2023-02-28T03:23:38;9.73;;;4.15;;
45792;SDS011;31495;42.740;22.908;2023-02-28T03:26:03;8.20;;;3.85;;
45792;SDS011;31495;42.740;22.908;2023-02-28T03:28:30;10.60;;;4.63;;
45792;SDS011;31495;42.740;22.908;2023-02-28T03:29:35;11.13;;;5.63;;
45792;SDS011;31495;42.740;22.908;2023-02-28T03:32:23;11.13;;;5.80;;
45792;SDS011;31495;42.740;22.908;2023-02-28T03:33:28;16.25;;;9.13;;
45792;SDS011;31495;42.740;22.908;2023-02-28T03:34:34;14.23;;;7.68;;
45792;SDS011;31495;42.740;22.908;2023-02-28T03:35:39;16.58;;;6.05;;
45792;SDS011;31495;42.740;22.908;2023-02-28T03:36:44;17.25;;;7.70;;
45792;SDS011;31495;42.740;22.908;2023-02-28T03:37:48;16.60;;;6.65;;
45792;SDS011;31495;42.740;22.908;2023-02-28T03:38:56;19.58;;;7.05;;
45792;SDS011;31495;42.740;22.908;2023-02-28T03:40:06;18.23;;;7.72;;
45792;SDS011;31495;42.740;22.908;2023-02-28T03:42:31;22.13;;;9.10;;
45792;SDS011;31495;42.740;22.908;2023-02-28T03:43:35;23.52;;;9.07;;
45792;SDS011;31495;42.740;22.908;2023-02-28T03:44:41;18.60;;;8.77;;
45792;SDS011;31495;42.740;22.908;2023-02-28T03:45:43;19.60;;;8.85;;
45792;SDS011;31495;42.740;22.908;2023-02-28T03:46:55;23.92;;;10.43;;
45792;SDS011;31495;42.740;22.908;2023-02-28T03:48:01;28.30;;;8.50;;
45792;SDS011;31495;42.740;22.908;2023-02-28T03:49:12;17.90;;;7.93;;
45792;SDS011;31495;42.740;22.908;2023-02-28T03:50:22;13.98;;;6.72;;
45792;SDS011;31495;42.740;22.908;2023-02-28T03:51:29;12.85;;;6.90;;
45792;SDS011;31495;42.740;22.908;2023-02-28T03:52:32;15.13;;;5.65;;
45792;SDS011;31495;42.740;22.908;2023-02-28T03:53:36;10.05;;;4.20;;
45792;SDS011;31495;42.740;22.908;2023-02-28T03:54:44;7.32;;;3.53;;
45792;SDS011;31495;42.740;22.908;2023-02-28T03:55:52;8.38;;;4.43;;
45792;SDS011;31495;42.740;22.908;2023-02-28T03:58:20;9.98;;;5.13;;
45792;SDS011;31495;42.740;22.908;2023-02-28T03:59:31;12.90;;;5.28;;
45792;SDS011;31495;42.740;22.908;2023-02-28T04:00:35;13.10;;;6.10;;
45792;SDS011;31495;42.740;22.908;2023-02-28T04:01:40;16.67;;;6.80;;
45792;SDS011;31495;42.740;22.908;2023-02-28T04:02:42;15.88;;;7.13;;
45792;SDS011;31495;42.740;22.908;2023-02-28T04:03:41;18.83;;;7.70;;
45792;SDS011;31495;42.740;22.908;2023-02-28T04:04:41;13.73;;;6.82;;
45792;SDS011;31495;42.740;22.908;2023-02-28T04:05:51;19.08;;;7.97;;
45792;SDS011;31495;42.740;22.908;2023-02-28T04:06:53;14.00;;;7.45;;
45792;SDS011;31495;42.740;22.908;2023-02-28T04:08:04;12.35;;;5.72;;
45792;SDS011;31495;42.740;22.908;2023-02-28T04:09:06;11.48;;;5.78;;
45792;SDS011;31495;42.740;22.908;2023-02-28T04:10:08;13.23;;;5.57;;
45792;SDS011;31495;42.740;22.908;2023-02-28T04:11:15;12.45;;;5.80;;
45792;SDS011;31495;42.740;22.908;2023-02-28T04:12:16;13.60;;;4.45;;
45792;SDS011;31495;42.740;22.908;2023-02-28T04:13:16;12.95;;;4.93;;
45792;SDS011;31495;42.740;22.908;2023-02-28T04:14:15;16.23;;;5.85;;
45792;SDS011;31495;42.740;22.908;2023-02-28T04:15:14;13.93;;;5.57;;
45792;SDS011;31495;42.740;22.908;2023-02-28T04:16:14;18.70;;;6.00;;
45792;SDS011;31495;42.740;22.908;2023-02-28T04:17:13;17.02;;;7.00;;
45792;SDS011;31495;42.740;22.908;2023-02-28T04:18:13;16.33;;;6.05;;
45792;SDS011;31495;42.740;22.908;2023-02-28T04:19:13;21.98;;;6.97;;
45792;SDS011;31495;42.740;22.908;2023-02-28T04:20:13;15.52;;;5.65;;
45792;SDS011;31495;42.740;22.908;2023-02-28T04:21:13;20.08;;;6.53;;
45792;SDS011;31495;42.740;22.908;2023-02-28T04:22:13;16.60;;;6.30;;
45792;SDS011;31495;42.740;22.908;2023-02-28T04:23:12;25.33;;;7.57;;
45792;SDS011;31495;42.740;22.908;2023-02-28T04:24:13;20.45;;;7.18;;
45792;SDS011;31495;42.740;22.908;2023-02-28T04:25:14;21.55;;;8.63;;
45792;SDS011;31495;42.740;22.908;2023-02-28T04:26:13;22.92;;;9.05;;
45792;SDS011;31495;42.740;22.908;2023-02-28T04:27:12;24.75;;;9.20;;
45792;SDS011;31495;42.740;22.908;2023-02-28T04:28:14;23.23;;;9.63;;
45792;SDS011;31495;42.740;22.908;2023-02-28T04:29:18;30.70;;;9.35;;
45792;SDS011;31495;42.740;22.908;2023-02-28T04:30:21;30.20;;;9.25;;
45792;SDS011;31495;42.740;22.908;2023-02-28T04:31:21;27.10;;;9.90;;
45792;SDS011;31495;42.740;22.908;2023-02-28T04:32:20;29.08;;;9.30;;
45792;SDS011;31495;42.740;22.908;2023-02-28T04:33:20;28.85;;;8.68;;
45792;SDS011;31495;42.740;22.908;2023-02-28T04:34:20;24.48;;;10.02;;
45792;SDS011;31495;42.740;22.908;2023-02-28T04:35:20;22.40;;;8.18;;
45792;SDS011;31495;42.740;22.908;2023-02-28T04:36:19;31.63;;;10.10;;
45792;SDS011;31495;42.740;22.908;2023-02-28T04:37:19;37.00;;;15.23;;
45792;SDS011;31495;42.740;22.908;2023-02-28T04:38:19;34.58;;;18.13;;
45792;SDS011;31495;42.740;22.908;2023-02-28T04:39:19;51.55;;;23.05;;
45792;SDS011;31495;42.740;22.908;2023-02-28T04:40:19;45.75;;;23.08;;
45792;SDS011;31495;42.740;22.908;2023-02-28T04:41:19;26.65;;;13.27;;
45792;SDS011;31495;42.740;22.908;2023-02-28T04:42:19;22.98;;;9.43;;
45792;SDS011;31495;42.740;22.908;2023-02-28T04:43:18;22.02;;;9.38;;
45792;SDS011;31495;42.740;22.908;2023-02-28T04:44:18;21.77;;;10.20;;
45792;SDS011;31495;42.740;22.908;2023-02-28T04:45:17;16.10;;;8.05;;
45792;SDS011;31495;42.740;22.908;2023-02-28T04:46:17;22.20;;;8.70;;
45792;SDS011;31495;42.740;22.908;2023-02-28T04:47:17;16.67;;;6.53;;
45792;SDS011;31495;42.740;22.908;2023-02-28T04:48:16;25.88;;;6.70;;
45792;SDS011;31495;42.740;22.908;2023-02-28T04:49:16;20.88;;;7.50;;
45792;SDS011;31495;42.740;22.908;2023-02-28T04:50:15;15.40;;;5.97;;
45792;SDS011;31495;42.740;22.908;2023-02-28T04:51:15;20.80;;;8.35;;
45792;SDS011;31495;42.740;22.908;2023-02-28T04:52:16;18.08;;;7.60;;
45792;SDS011;31495;42.740;22.908;2023-02-28T04:53:15;20.85;;;7.78;;
45792;SDS011;31495;42.740;22.908;2023-02-28T04:54:15;20.35;;;8.55;;
45792;SDS011;31495;42.740;22.908;2023-02-28T04:55:15;22.40;;;8.52;;
45792;SDS011;31495;42.740;22.908;2023-02-28T04:56:15;26.83;;;8.40;;
45792;SDS011;31495;42.740;22.908;2023-02-28T04:57:16;28.50;;;9.82;;
45792;SDS011;31495;42.740;22.908;2023-02-28T04:58:15;23.98;;;9.10;;
45792;SDS011;31495;42.740;22.908;2023-02-28T04:59:15;21.83;;;8.90;;
45792;SDS011;31495;42.740;22.908;2023-02-28T05:00:14;25.73;;;10.77;;
45792;SDS011;31495;42.740;22.908;2023-02-28T05:02:15;29.65;;;10.82;;
45792;SDS011;31495;42.740;22.908;2023-02-28T05:03:15;32.53;;;12.57;;
45792;SDS011;31495;42.740;22.908;2023-02-28T05:04:15;39.13;;;13.27;;
45792;SDS011;31495;42.740;22.908;2023-02-28T05:05:15;31.17;;;11.15;;
45792;SDS011;31495;42.740;22.908;2023-02-28T05:06:16;26.88;;;10.20;;
45792;SDS011;31495;42.740;22.908;2023-02-28T05:07:17;25.40;;;10.57;;
45792;SDS011;31495;42.740;22.908;2023-02-28T05:08:16;25.88;;;8.77;;
45792;SDS011;31495;42.740;22.908;2023-02-28T05:09:16;18.13;;;7.78;;
45792;SDS011;31495;42.740;22.908;2023-02-28T05:10:15;21.08;;;7.25;;
45792;SDS011;31495;42.740;22.908;2023-02-28T05:11:31;14.82;;;5.72;;
45792;SDS011;31495;42.740;22.908;2023-02-28T05:12:33;12.43;;;4.80;;
45792;SDS011;31495;42.740;22.908;2023-02-28T05:13:33;15.27;;;5.78;;
45792;SDS011;31495;42.740;22.908;2023-02-28T05:14:34;16.10;;;5.60;;
45792;SDS011;31495;42.740;22.908;2023-02-28T05:15:33;16.45;;;6.75;;
45792;SDS011;31495;42.740;22.908;2023-02-28T05:16:33;13.68;;;5.30;;
45792;SDS011;31495;42.740;22.908;2023-02-28T05:17:32;11.48;;;5.20;;
45792;SDS011;31495;42.740;22.908;2023-02-28T05:18:31;17.17;;;6.88;;
45792;SDS011;31495;42.740;22.908;2023-02-28T05:19:30;18.20;;;7.00;;
45792;SDS011;31495;42.740;22.908;2023-02-28T05:20:30;22.25;;;7.60;;
45792;SDS011;31495;42.740;22.908;2023-02-28T05:21:31;16.40;;;7.85;;
45792;SDS011;31495;42.740;22.908;2023-02-28T05:22:32;14.23;;;7.47;;
45792;SDS011;31495;42.740;22.908;2023-02-28T05:23:31;15.57;;;7.55;;
45792;SDS011;31495;42.740;22.908;2023-02-28T05:24:32;11.73;;;6.32;;
45792;SDS011;31495;42.740;22.908;2023-02-28T05:25:31;16.02;;;7.50;;
45792;SDS011;31495;42.740;22.908;2023-02-28T05:26:33;21.83;;;10.27;;
45792;SDS011;31495;42.740;22.908;2023-02-28T05:27:34;28.80;;;12.98;;
45792;SDS011;31495;42.740;22.908;2023-02-28T05:28:33;33.15;;;14.10;;
45792;SDS011;31495;42.740;22.908;2023-02-28T05:29:32;35.75;;;18.23;;
45792;SDS011;31495;42.740;22.908;2023-02-28T05:30:33;58.33;;;32.50;;
45792;SDS011;31495;42.740;22.908;2023-02-28T05:31:32;50.85;;;29.95;;
45792;SDS011;31495;42.740;22.908;2023-02-28T05:32:32;56.38;;;27.70;;
45792;SDS011;31495;42.740;22.908;2023-02-28T05:33:31;47.92;;;26.95;;
45792;SDS011;31495;42.740;22.908;2023-02-28T05:34:31;42.30;;;22.45;;
45792;SDS011;31495;42.740;22.908;2023-02-28T05:35:31;51.55;;;24.05;;
45792;SDS011;31495;42.740;22.908;2023-02-28T05:36:30;56.63;;;26.00;;
45792;SDS011;31495;42.740;22.908;2023-02-28T05:37:30;43.38;;;22.33;;
45792;SDS011;31495;42.740;22.908;2023-02-28T05:38:29;38.65;;;18.38;;
45792;SDS011;31495;42.740;22.908;2023-02-28T05:39:29;33.20;;;18.58;;
45792;SDS011;31495;42.740;22.908;2023-02-28T05:40:28;32.60;;;16.23;;
45792;SDS011;31495;42.740;22.908;2023-02-28T05:41:28;27.70;;;14.68;;
45792;SDS011;31495;42.740;22.908;2023-02-28T05:42:27;25.15;;;14.30;;
45792;SDS011;31495;42.740;22.908;2023-02-28T05:43:27;25.63;;;14.52;;
45792;SDS011;31495;42.740;22.908;2023-02-28T05:44:26;26.75;;;14.90;;
45792;SDS011;31495;42.740;22.908;2023-02-28T05:45:26;24.25;;;12.35;;
45792;SDS011;31495;42.740;22.908;2023-02-28T05:46:26;20.52;;;11.55;;
45792;SDS011;31495;42.740;22.908;2023-02-28T05:47:25;25.15;;;11.23;;
45792;SDS011;31495;42.740;22.908;2023-02-28T05:48:25;21.95;;;11.75;;
45792;SDS011;31495;42.740;22.908;2023-02-28T05:49:24;20.08;;;11.43;;
45792;SDS011;31495;42.740;22.908;2023-02-28T05:50:24;18.95;;;10.52;;
45792;SDS011;31495;42.740;22.908;2023-02-28T05:51:23;19.90;;;10.40;;
45792;SDS011;31495;42.740;22.908;2023-02-28T05:52:22;19.80;;;10.23;;
45792;SDS011;31495;42.740;22.908;2023-02-28T05:53:22;22.08;;;11.70;;
45792;SDS011;31495;42.740;22.908;2023-02-28T05:54:22;20.45;;;10.75;;
45792;SDS011;31495;42.740;22.908;2023-02-28T05:55:21;17.15;;;9.65;;
45792;SDS011;31495;42.740;22.908;2023-02-28T05:56:21;17.08;;;8.70;;
45792;SDS011;31495;42.740;22.908;2023-02-28T05:57:21;19.33;;;11.27;;
45792;SDS011;31495;42.740;22.908;2023-02-28T05:58:21;24.60;;;12.52;;
45792;SDS011;31495;42.740;22.908;2023-02-28T05:59:21;30.15;;;14.90;;
45792;SDS011;31495;42.740;22.908;2023-02-28T06:00:20;31.17;;;13.77;;
45792;SDS011;31495;42.740;22.908;2023-02-28T06:01:22;30.08;;;14.93;;
45792;SDS011;31495;42.740;22.908;2023-02-28T06:02:38;30.17;;;15.10;;
45792;SDS011;31495;42.740;22.908;2023-02-28T06:03:39;32.55;;;16.02;;
45792;SDS011;31495;42.740;22.908;2023-02-28T06:04:38;29.90;;;16.58;;
45792;SDS011;31495;42.740;22.908;2023-02-28T06:05:39;29.55;;;14.68;;
45792;SDS011;31495;42.740;22.908;2023-02-28T06:06:39;36.05;;;16.40;;
45792;SDS011;31495;42.740;22.908;2023-02-28T06:07:38;30.73;;;16.48;;
45792;SDS011;31495;42.740;22.908;2023-02-28T06:08:38;36.80;;;21.30;;
45792;SDS011;31495;42.740;22.908;2023-02-28T06:09:38;36.08;;;22.98;;
45792;SDS011;31495;42.740;22.908;2023-02-28T06:10:37;47.65;;;28.88;;
45792;SDS011;31495;42.740;22.908;2023-02-28T06:11:36;49.38;;;27.35;;
45792;SDS011;31495;42.740;22.908;2023-02-28T06:12:37;63.00;;;33.70;;
45792;SDS011;31495;42.740;22.908;2023-02-28T06:13:37;134.18;;;65.10;;
45792;SDS011;31495;42.740;22.908;2023-02-28T06:14:37;128.50;;;62.10;;
45792;SDS011;31495;42.740;22.908;2023-02-28T06:15:37;108.63;;;50.97;;
45792;SDS011;31495;42.740;22.908;2023-02-28T06:16:36;89.82;;;43.78;;
45792;SDS011;31495;42.740;22.908;2023-02-28T06:17:35;99.28;;;46.55;;
45792;SDS011;31495;42.740;22.908;2023-02-28T06:18:35;79.20;;;38.30;;
45792;SDS011;31495;42.740;22.908;2023-02-28T06:19:36;72.32;;;35.72;;
45792;SDS011;31495;42.740;22.908;2023-02-28T06:20:37;56.75;;;29.02;;
45792;SDS011;31495;42.740;22.908;2023-02-28T06:21:37;50.03;;;24.55;;
45792;SDS011;31495;42.740;22.908;2023-02-28T06:22:36;40.20;;;21.45;;
45792;SDS011;31495;42.740;22.908;2023-02-28T06:23:36;36.25;;;16.77;;
45792;SDS011;31495;42.740;22.908;2023-02-28T06:24:35;25.33;;;12.02;;
45792;SDS011;31495;42.740;22.908;2023-02-28T06:25:34;25.17;;;11.63;;
45792;SDS011;31495;42.740;22.908;2023-02-28T06:26:34;22.88;;;12.52;;
45792;SDS011;31495;42.740;22.908;2023-02-28T06:27:34;21.15;;;12.45;;
45792;SDS011;31495;42.740;22.908;2023-02-28T06:28:33;23.38;;;12.20;;
45792;SDS011;31495;42.740;22.908;2023-02-28T06:29:33;29.10;;;14.90;;
45792;SDS011;31495;42.740;22.908;2023-02-28T06:30:34;29.70;;;15.73;;
45792;SDS011;31495;42.740;22.908;2023-02-28T06:31:33;25.52;;;12.40;;
45792;SDS011;31495;42.740;22.908;2023-02-28T06:32:33;25.08;;;11.80;;
45792;SDS011;31495;42.740;22.908;2023-02-28T06:33:32;25.30;;;11.88;;
45792;SDS011;31495;42.740;22.908;2023-02-28T06:34:32;23.23;;;12.13;;
45792;SDS011;31495;42.740;22.908;2023-02-28T06:35:33;25.50;;;13.20;;
45792;SDS011;31495;42.740;22.908;2023-02-28T06:36:32;25.38;;;13.40;;
45792;SDS011;31495;42.740;22.908;2023-02-28T06:37:32;22.95;;;12.43;;
45792;SDS011;31495;42.740;22.908;2023-02-28T06:38:31;26.73;;;12.32;;
45792;SDS011;31495;42.740;22.908;2023-02-28T06:39:31;24.48;;;12.75;;
45792;SDS011;31495;42.740;22.908;2023-02-28T06:40:31;19.50;;;10.27;;
45792;SDS011;31495;42.740;22.908;2023-02-28T06:41:34;21.88;;;11.07;;